| time (UTC) | temp C | wind direction | speed KPH | gust KPH | rain 1hr cm | rain 24hr cm | rain mn cm | humidity % | barometer mb |
| 20260905010014 | 18 | 337 | 0.0 | 1.6 | 0.00 | 0.00 | 0.00 | 73 | 1017.2 |
| 20260905004512 | 18 | 338 | 0.0 | 0.0 | 0.00 | 0.00 | 0.00 | 73 | 1016.8 |
| 20260905003013 | 19 | 338 | 0.0 | 3.2 | 0.00 | 0.00 | 0.00 | 74 | 1016.6 |
| 20260905001509 | 19 | 348 | 0.0 | 3.2 | 0.00 | 0.00 | 0.00 | 74 | 1016.5 |
| 20260905000007 | 20 | 348 | 0.0 | 3.2 | 0.00 | 0.00 | 0.00 | 73 | 1016.5 |
| 20260904234504 | 20 | 348 | 0.0 | 4.8 | 0.00 | 0.00 | 0.00 | 72 | 1016.4 |
| 20260904233101 | 21 | 24 | 0.0 | 8.0 | 0.00 | 0.00 | 0.00 | 70 | 1016.4 |
| 20260904231557 | 22 | 11 | 1.6 | 16.1 | 0.00 | 0.00 | 0.00 | 65 | 1015.9 |
| 20260904230107 | 22 | 261 | 0.0 | 11.3 | 0.00 | 0.00 | 0.00 | 62 | 1015.6 |
| 20260904224605 | 22 | 263 | 0.0 | 8.0 | 0.00 | 0.00 | 0.00 | 61 | 1015.4 |
| 20260904223107 | 23 | 264 | 1.6 | 12.9 | 0.00 | 0.00 | 0.00 | 60 | 1015.2 |
| 20260904221606 | 22 | 269 | 0.0 | 8.0 | 0.00 | 0.00 | 0.00 | 60 | 1015.1 |
| 20260904220052 | 22 | 267 | 0.0 | 6.4 | 0.00 | 0.00 | 0.00 | 60 | 1015.0 |
| 20260904214553 | 23 | 269 | 0.0 | 4.8 | 0.00 | 0.00 | 0.00 | 60 | 1014.8 |
| 20260904213054 | 23 | 267 | 0.0 | 3.2 | 0.00 | 0.00 | 0.00 | 59 | 1014.7 |
| 20260904211551 | 23 | 267 | 0.0 | 12.9 | 0.00 | 0.00 | 0.00 | 58 | 1014.5 |
| 20260904210050 | 23 | 272 | 0.0 | 3.2 | 0.00 | 0.00 | 0.00 | 58 | 1014.4 |
| 20260904204550 | 23 | 273 | 0.0 | 12.9 | 0.00 | 0.00 | 0.00 | 57 | 1014.4 |
| 20260904203050 | 23 | 270 | 0.0 | 6.4 | 0.00 | 0.00 | 0.00 | 56 | 1014.5 |
| 20260904201556 | 24 | 274 | 0.0 | 3.2 | 0.00 | 0.00 | 0.00 | 56 | 1014.4 |
| 20260904200113 | 24 | 276 | 0.0 | 9.7 | 0.00 | 0.00 | 0.00 | 55 | 1014.3 |
| 20260904194553 | 24 | 265 | 0.0 | 4.8 | 0.00 | 0.00 | 0.00 | 55 | 1014.3 |
| 20260904193051 | 25 | 265 | 0.0 | 11.3 | 0.00 | 0.00 | 0.00 | 55 | 1014.1 |
| 20260904191549 | 25 | 279 | 0.0 | 12.9 | 0.00 | 0.00 | 0.00 | 55 | 1014.0 |
| 20260904190048 | 25 | 252 | 0.0 | 4.8 | 0.00 | 0.00 | 0.00 | 55 | 1014.0 |
| 20260904184547 | 25 | 248 | 0.0 | 6.4 | 0.00 | 0.00 | 0.00 | 54 | 1013.8 |
| 20260904183047 | 25 | 275 | 0.0 | 4.8 | 0.00 | 0.00 | 0.00 | 54 | 1013.7 |
| 20260904181546 | 25 | 273 | 0.0 | 6.4 | 0.00 | 0.00 | 0.00 | 54 | 1013.7 |
| 20260904180046 | 26 | 277 | 0.0 | 9.7 | 0.00 | 0.00 | 0.00 | 52 | 1013.5 |
| 20260904174548 | 26 | 266 | 0.0 | 9.7 | 0.00 | 0.00 | 0.00 | 50 | 1013.4 |
| 20260904173045 | 27 | 271 | 1.6 | 9.7 | 0.00 | 0.00 | 0.00 | 49 | 1013.4 |
| 20260904171607 | 27 | 267 | 1.6 | 14.5 | 0.00 | 0.00 | 0.00 | 48 | 1013.4 |
| 20260904170040 | 27 | 268 | 0.0 | 12.9 | 0.00 | 0.00 | 0.00 | 47 | 1013.5 |
| 20260904164539 | 28 | 267 | 1.6 | 9.7 | 0.00 | 0.00 | 0.00 | 46 | 1013.5 |
| 20260904163050 | 28 | 269 | 1.6 | 17.7 | 0.00 | 0.00 | 0.00 | 45 | 1013.5 |
| 20260904161544 | 28 | 254 | 1.6 | 17.7 | 0.00 | 0.00 | 0.00 | 44 | 1013.4 |
| 20260904160039 | 28 | 254 | 3.2 | 12.9 | 0.00 | 0.00 | 0.00 | 44 | 1013.5 |
| 20260904154537 | 28 | 277 | 4.8 | 22.5 | 0.00 | 0.00 | 0.00 | 43 | 1013.4 |
| 20260904153059 | 28 | 279 | 3.2 | 17.7 | 0.00 | 0.00 | 0.00 | 44 | 1013.4 |
| 20260904151539 | 29 | 253 | 1.6 | 14.5 | 0.00 | 0.00 | 0.00 | 44 | 1013.4 |
| 20260904150037 | 29 | 269 | 1.6 | 12.9 | 0.00 | 0.00 | 0.00 | 44 | 1013.4 |
| 20260904144532 | 29 | 192 | 1.6 | 14.5 | 0.00 | 0.00 | 0.00 | 43 | 1013.4 |
| 20260904143037 | 29 | 261 | 3.2 | 16.1 | 0.00 | 0.00 | 0.00 | 43 | 1013.6 |
| 20260904141530 | 29 | 266 | 3.2 | 20.9 | 0.00 | 0.00 | 0.00 | 44 | 1013.9 |
| 20260904140028 | 29 | 278 | 1.6 | 17.7 | 0.00 | 0.00 | 0.00 | 44 | 1014.0 |
| 20260904134525 | 29 | 273 | 1.6 | 11.3 | 0.00 | 0.00 | 0.00 | 44 | 1014.1 |
| 20260904133023 | 28 | 251 | 0.0 | 12.9 | 0.00 | 0.00 | 0.00 | 47 | 1014.4 |
| 20260904131522 | 28 | 267 | 1.6 | 19.3 | 0.00 | 0.00 | 0.00 | 47 | 1014.5 |
| 20260904130019 | 28 | 264 | 3.2 | 14.5 | 0.00 | 0.00 | 0.00 | 48 | 1014.8 |
| 20260904124516 | 28 | 277 | 3.2 | 20.9 | 0.00 | 0.00 | 0.00 | 48 | 1015.1 |
| 20260904123013 | 27 | 248 | 0.0 | 16.1 | 0.00 | 0.00 | 0.00 | 49 | 1015.3 |
| 20260904121510 | 27 | 271 | 3.2 | 17.7 | 0.00 | 0.00 | 0.00 | 50 | 1015.5 |
| 20260904120007 | 27 | 275 | 3.2 | 14.5 | 0.00 | 0.00 | 0.00 | 50 | 1015.9 |
| 20260904114504 | 27 | 267 | 0.0 | 14.5 | 0.00 | 0.00 | 0.00 | 51 | 1016.0 |
| 20260904113001 | 26 | 302 | 0.0 | 12.9 | 0.00 | 0.00 | 0.00 | 53 | 1016.1 |
| 20260904111557 | 26 | 283 | 1.6 | 12.9 | 0.00 | 0.00 | 0.00 | 53 | 1016.5 |
| 20260904110054 | 26 | 279 | 0.0 | 17.7 | 0.00 | 0.00 | 0.00 | 54 | 1016.6 |
| 20260904104553 | 26 | 273 | 1.6 | 11.3 | 0.00 | 0.00 | 0.00 | 55 | 1016.8 |
| 20260904103050 | 25 | 278 | 1.6 | 14.5 | 0.00 | 0.00 | 0.00 | 55 | 1017.0 |
| 20260904101548 | 25 | 278 | 0.0 | 11.3 | 0.00 | 0.00 | 0.00 | 56 | 1017.2 |
| 20260904100045 | 25 | 278 | 0.0 | 16.1 | 0.00 | 0.00 | 0.00 | 57 | 1017.5 |
| 20260904094542 | 25 | 269 | 3.2 | 17.7 | 0.00 | 0.00 | 0.00 | 57 | 1017.6 |
| 20260904093038 | 24 | 273 | 0.0 | 11.3 | 0.00 | 0.00 | 0.00 | 59 | 1017.9 |
| 20260904091533 | 24 | 265 | 0.0 | 9.7 | 0.00 | 0.00 | 0.00 | 61 | 1018.3 |
| 20260904090030 | 23 | 263 | 3.2 | 12.9 | 0.00 | 0.00 | 0.00 | 62 | 1018.5 |
| 20260904084526 | 23 | 285 | 0.0 | 11.3 | 0.00 | 0.00 | 0.00 | 63 | 1018.7 |
| 20260904083024 | 22 | 275 | 0.0 | 6.4 | 0.00 | 0.00 | 0.00 | 64 | 1018.7 |
| 20260904081518 | 22 | 273 | 0.0 | 6.4 | 0.00 | 0.00 | 0.00 | 64 | 1018.8 |
| 20260904080014 | 21 | 276 | 0.0 | 3.2 | 0.00 | 0.00 | 0.00 | 65 | 1018.9 |
| 20260904074511 | 21 | 275 | 1.6 | 6.4 | 0.00 | 0.00 | 0.00 | 65 | 1019.0 |
| 20260904073008 | 20 | 272 | 0.0 | 8.0 | 0.00 | 0.00 | 0.00 | 67 | 1019.1 |
| 20260904071505 | 20 | 288 | 0.0 | 3.2 | 0.00 | 0.00 | 0.00 | 68 | 1019.2 |
| 20260904070008 | 19 | 272 | 0.0 | 8.0 | 0.00 | 0.00 | 0.00 | 70 | 1019.3 |
| 20260904064559 | 19 | 271 | 0.0 | 9.7 | 0.00 | 0.00 | 0.00 | 71 | 1019.4 |
| 20260904063113 | 18 | 271 | 0.0 | 8.0 | 0.00 | 0.00 | 0.00 | 72 | 1019.4 |
| 20260904061554 | 17 | 270 | 0.0 | 4.8 | 0.00 | 0.00 | 0.00 | 77 | 1019.5 |
| 20260904060053 | 16 | 269 | 0.0 | 1.6 | 0.00 | 0.00 | 0.00 | 82 | 1019.5 |
| 20260904054549 | 16 | 269 | 0.0 | 0.0 | 0.00 | 0.00 | 0.00 | 82 | 1019.7 |
| 20260904053057 | 16 | 269 | 0.0 | 0.0 | 0.00 | 0.00 | 0.00 | 80 | 1019.6 |
| 20260904051543 | 16 | 269 | 0.0 | 0.0 | 0.00 | 0.00 | 0.00 | 79 | 1019.6 |
| 20260904050041 | 16 | 269 | 0.0 | 0.0 | 0.00 | 0.00 | 0.00 | 79 | 1019.6 |
| 20260904044540 | 16 | 269 | 0.0 | 0.0 | 0.00 | 0.00 | 0.00 | 80 | 1019.7 |
| 20260904043051 | 16 | 269 | 0.0 | 0.0 | 0.00 | 0.00 | 0.00 | 81 | 1019.8 |
| 20260904041539 | 15 | 269 | 0.0 | 0.0 | 0.00 | 0.00 | 0.00 | 83 | 1019.8 |
| 20260904040037 | 15 | 269 | 0.0 | 0.0 | 0.00 | 0.00 | 0.00 | 86 | 1020.0 |
| 20260904034536 | 14 | 269 | 0.0 | 0.0 | 0.00 | 0.00 | 0.00 | 88 | 1020.1 |
| 20260904033035 | 13 | 269 | 0.0 | 0.0 | 0.00 | 0.00 | 0.00 | 89 | 1020.2 |
| 20260904031533 | 13 | 269 | 0.0 | 0.0 | 0.00 | 0.00 | 0.00 | 89 | 1020.2 |
| 20260904030045 | 13 | 269 | 0.0 | 0.0 | 0.00 | 0.00 | 0.00 | 89 | 1020.4 |
| 20260904024530 | 13 | 269 | 0.0 | 0.0 | 0.00 | 0.00 | 0.00 | 88 | 1020.5 |
| 20260904023029 | 13 | 269 | 0.0 | 0.0 | 0.00 | 0.00 | 0.00 | 88 | 1020.7 |
| 20260904021550 | 13 | 269 | 0.0 | 0.0 | 0.00 | 0.00 | 0.00 | 87 | 1020.8 |
| 20260904020036 | 13 | 269 | 0.0 | 0.0 | 0.00 | 0.00 | 0.00 | 86 | 1020.9 |
| 20260904014537 | 13 | 269 | 0.0 | 0.0 | 0.00 | 0.00 | 0.00 | 86 | 1020.6 |
| 20260904013034 | 13 | 269 | 0.0 | 0.0 | 0.00 | 0.00 | 0.00 | 86 | 1020.7 |
| 20260904011522 | 13 | 269 | 0.0 | 0.0 | 0.00 | 0.00 | 0.00 | 85 | 1020.8 |